Purdue University Airport
KLAF : now visible

Airfield :











YOU CAN JOIN US ON...

 
LOGIN :

Register | Disclaimer

   EN    FR    IT 

 









Legend :    VFR   Marginal VFR   IFR   Intensive IFR   Very Intensive IFR
Visi :
Ceiling :
>= 8 km
>= 3000ft
5 to 8 km
1000 to 3000 ft
1500m to 5 km
500 to 1000 ft
800 to 1500m
200 to 500 ft
< 800m
< 200 ft
Symbols :   Thunderstorms  Fog  Heavy snow  Heavy precipitations  Wind > 20 kt






- Airport Elevation : 606 ft
- IATA code : LAF


KLAF - Purdue University

CURRENT METAR :
  • 190854Z AUTO 19007KT 6SM -RA BKN011 BKN041 OVC100 25/21 A2987 RMK AO2 LTG DSNT ALQDS RAE02B18 SLP107 P0005 60036 T02500211 53011 $

EXPIRED METARs :
  • 190849Z AUTO 18006KT 5SM RA BKN011 BKN040 OVC110 25/21 A2985 RMK AO2 LTG DSNT ALQDS RAE02B18 CIG 007V013 P0005 $
  • 190836Z AUTO 25005KT 5SM VCTS -RA SCT012 BKN095 BKN120 25/21 A2988 RMK AO2 LTG DSNT N AND S AND SW RAE02B18 PRESRR P0002 T02500211 $
  • 190754Z AUTO 15008G18KT 9SM -RA SCT029 BKN100 BKN110 25/21 A2980 RMK AO2 LTG DSNT SE AND S RAE04B30 PRESFR SLP082 P0001 T02500211 $
  • 190720Z AUTO VRB05KT 10SM VCTS OVC100 26/22 A2985 RMK AO2 LTG DSNT S-W RAE04 P0000 T02560217 $
  • 190654Z AUTO 15011G20KT 3SM +RA FEW016 SCT080 OVC100 26/22 A2983 RMK AO2 LTG DSNT S-W TSB05E27B35E50 SLP093 P0030 T02610217 $
  • 190641Z AUTO 5SM -TSRA FEW047 SCT070 OVC095 26/22 A2983 RMK AO2 LTG DSNT E-SW TSB05E27B35 P0022 T02610222 $
  • 190631Z AUTO 13009KT 3SM VCTS RA SCT047 BKN070 OVC090 26/22 A2983 RMK AO2 LTG DSNT E AND SW AND W TSB05E27 P0020 T02610217 $
  • 190611Z AUTO VRB04KT 7SM -TSRA FEW050 OVC090 26/22 A2985 RMK AO2 LTG DSNT NE AND E TSB05 P0001 T02610217 $

TAF KLAF
Valid from the 19 at 06:00 until the 20 at 06:00 UTC


190520Z 1906/2006 24007KT P6SM SCT100
FM190900 21006KT 6SM TSRA BR OVC050CB
TEMPO 1909/1911 4SM TSRA BR OVC025CB
FM191100 23007KT P6SM VCTS OVC050CB
FM191300 23010G18KT P6SM BKN050
FM200000 24008KT P6SM SCT060 AMD LTD TO CLD VIS AND WIND TIL 191300
KZAU FIR / North America



MET'MAP, your aeronautical weather chart ! - Copyright ORBIFLY December 2007 - Disclaimer

ORBIFLY MET'MAP TEAM :

Programming & Development : Alexandra Zaïnal
Concept & original design : Baudouin d'Aumeries
Assistance for programming : Marc-Olivier Méhu
Technical & hardware support : Manuel Goepfert

Contact : metmap@orbifly.com




SOURCES & CREDITS :

   NOAA       Earth
Advisory